createdAt,value
2019-05-13T00:01:07.071Z,67.20
2019-05-13T00:03:35.691Z,67.30
2019-05-13T00:06:05.119Z,67.40
2019-05-13T00:08:34.642Z,67.50
2019-05-13T00:11:04.577Z,67.50
2019-05-13T00:13:34.194Z,64.70
2019-05-13T00:16:03.910Z,64.50
2019-05-13T00:18:34.012Z,64.00
2019-05-13T00:21:03.915Z,63.60
2019-05-13T00:23:33.957Z,64.00
2019-05-13T00:26:04.020Z,64.00
2019-05-13T00:28:34.473Z,64.40
2019-05-13T00:31:04.014Z,65.20
2019-05-13T00:33:34.091Z,64.00
2019-05-13T00:36:04.164Z,64.20
2019-05-13T00:38:33.800Z,63.60
2019-05-13T00:41:03.788Z,64.10
2019-05-13T00:43:34.002Z,64.80
2019-05-13T00:46:04.047Z,63.40
2019-05-13T00:48:33.721Z,64.40
2019-05-13T00:51:03.946Z,65.70
2019-05-13T00:53:35.340Z,64.20
2019-05-13T00:56:05.006Z,64.90
2019-05-13T00:58:34.532Z,63.00
2019-05-13T01:01:03.960Z,63.50
2019-05-13T01:03:33.953Z,64.00
2019-05-13T01:06:04.335Z,63.30
2019-05-13T01:08:34.036Z,63.20
2019-05-13T01:11:04.277Z,63.20
2019-05-13T01:13:34.305Z,62.40
2019-05-13T01:16:04.044Z,63.90
2019-05-13T01:18:34.157Z,64.40
2019-05-13T01:21:04.459Z,64.20
2019-05-13T01:23:34.503Z,63.70
2019-05-13T01:26:04.180Z,63.40
2019-05-13T01:28:34.438Z,62.70
2019-05-13T01:31:04.310Z,63.60
2019-05-13T01:33:35.122Z,62.70
2019-05-13T01:36:05.403Z,62.50
2019-05-13T01:38:35.010Z,62.70
2019-05-13T01:41:04.635Z,63.30
2019-05-13T01:43:34.239Z,63.00
2019-05-13T01:46:04.533Z,62.80
2019-05-13T01:48:34.175Z,62.80
2019-05-13T01:51:03.994Z,63.50
2019-05-13T01:53:33.827Z,63.00
2019-05-13T01:56:03.945Z,62.80
2019-05-13T01:58:34.095Z,62.80
2019-05-13T02:01:05.050Z,64.10
2019-05-13T02:03:34.899Z,64.10
2019-05-13T02:06:04.350Z,62.80
2019-05-13T02:08:33.947Z,63.50
2019-05-13T02:11:04.349Z,63.10
2019-05-13T02:13:34.512Z,62.60
2019-05-13T02:16:04.521Z,64.20
2019-05-13T02:18:34.376Z,63.20
2019-05-13T02:21:05.182Z,63.30
2019-05-13T02:23:35.167Z,62.70
2019-05-13T02:26:04.768Z,63.10
2019-05-13T02:28:34.273Z,63.00
2019-05-13T02:31:03.673Z,63.50
2019-05-13T02:33:34.154Z,64.10
2019-05-13T02:36:03.691Z,64.20
2019-05-13T02:38:35.433Z,65.00
2019-05-13T02:41:04.480Z,64.30
2019-05-13T02:43:34.203Z,64.60
2019-05-13T02:46:04.420Z,63.40
2019-05-13T02:48:34.201Z,65.20
2019-05-13T02:51:04.104Z,65.70
2019-05-13T02:53:33.921Z,63.40
2019-05-13T02:56:03.776Z,65.00
2019-05-13T02:58:33.888Z,64.30
2019-05-13T03:01:03.762Z,64.90
2019-05-13T03:03:33.336Z,64.80
2019-05-13T03:06:03.269Z,64.90
2019-05-13T03:08:43.718Z,63.30
2019-05-13T03:11:03.976Z,63.70
2019-05-13T03:13:33.508Z,63.80
2019-05-13T03:16:13.034Z,63.60
2019-05-13T03:18:43.557Z,62.70
2019-05-13T03:21:12.959Z,63.60
2019-05-13T03:23:44.328Z,65.40
2019-05-13T03:26:14.099Z,64.70
2019-05-13T03:28:44.195Z,65.90
2019-05-13T03:31:16.877Z,65.40
2019-05-13T03:33:47.049Z,66.10
2019-05-13T03:36:17.890Z,67.00
2019-05-13T03:39:01.780Z,67.30
2019-05-13T03:41:22.521Z,64.30
2019-05-13T03:43:53.558Z,66.20
2019-05-13T03:46:24.159Z,66.00
2019-05-13T03:48:55.127Z,65.90
2019-05-13T03:51:24.774Z,63.50
2019-05-13T03:53:54.289Z,65.70
2019-05-13T03:56:24.177Z,66.10
2019-05-13T03:58:54.326Z,65.90
2019-05-13T04:01:24.213Z,66.30
2019-05-13T04:03:53.694Z,66.40
2019-05-13T04:06:23.859Z,66.60
2019-05-13T04:08:54.197Z,65.60
2019-05-13T04:11:24.077Z,66.20
2019-05-13T04:13:53.583Z,66.10
2019-05-13T04:16:25.319Z,65.90
2019-05-13T04:18:54.972Z,63.80
2019-05-13T04:21:24.777Z,63.80
2019-05-13T04:23:54.532Z,61.40
2019-05-13T04:26:24.177Z,61.90
2019-05-13T04:28:53.721Z,62.40
2019-05-13T04:31:23.284Z,61.70
2019-05-13T04:33:53.580Z,62.80
2019-05-13T04:36:23.972Z,63.50
2019-05-13T04:38:53.537Z,64.80
2019-05-13T04:41:23.451Z,63.80
2019-05-13T04:43:53.883Z,63.60
2019-05-13T04:46:24.752Z,63.70
2019-05-13T04:48:54.186Z,63.40
2019-05-13T04:51:23.645Z,63.20
2019-05-13T04:53:56.921Z,62.60
2019-05-13T04:56:24.614Z,63.40
2019-05-13T04:58:54.132Z,63.30
2019-05-13T05:01:59.198Z,62.40
2019-05-13T05:04:43.642Z,62.80
2019-05-13T05:07:32.551Z,63.30
2019-05-13T05:10:33.086Z,63.70
2019-05-13T05:13:36.159Z,63.40
2019-05-13T05:16:33.735Z,62.50
2019-05-13T05:19:52.454Z,63.90
2019-05-13T05:22:35.458Z,63.10
2019-05-13T05:25:19.040Z,63.10
2019-05-13T05:28:44.658Z,60.20
2019-05-13T05:31:42.702Z,58.70
2019-05-13T05:34:33.044Z,58.90
2019-05-13T05:37:24.394Z,58.20
2019-05-13T05:39:56.350Z,56.50
2019-05-13T05:42:27.200Z,55.50
2019-05-13T05:44:58.266Z,56.00
2019-05-13T05:47:31.794Z,55.50
2019-05-13T05:50:03.207Z,56.00
2019-05-13T05:52:34.750Z,56.60
2019-05-13T05:55:04.535Z,54.80
2019-05-13T05:57:36.273Z,54.90
2019-05-13T06:00:06.277Z,54.80
2019-05-13T06:02:37.533Z,53.30
2019-05-13T06:05:07.052Z,52.90
2019-05-13T06:07:36.791Z,52.70
2019-05-13T06:10:06.378Z,50.50
2019-05-13T06:12:36.795Z,50.00
2019-05-13T06:15:06.655Z,49.90
2019-05-13T06:17:36.227Z,50.20
2019-05-13T06:20:06.035Z,50.60
2019-05-13T06:22:35.639Z,50.30
2019-05-13T06:25:05.435Z,51.10
2019-05-13T06:27:34.949Z,49.70
2019-05-13T06:30:04.654Z,49.40
2019-05-13T06:32:34.187Z,49.50
2019-05-13T06:35:03.908Z,48.90
2019-05-13T06:37:33.491Z,47.90
2019-05-13T06:40:02.940Z,47.70
2019-05-13T06:42:32.643Z,47.70
2019-05-13T06:45:02.380Z,47.30
2019-05-13T06:47:33.270Z,47.60
2019-05-13T06:50:03.540Z,48.20
2019-05-13T06:52:33.095Z,47.50
2019-05-13T06:55:03.022Z,49.00
2019-05-13T06:57:32.635Z,48.60
2019-05-13T07:00:02.268Z,48.20
2019-05-13T07:02:32.012Z,47.10
2019-05-13T07:05:02.500Z,47.50
2019-05-13T07:07:32.084Z,47.10
2019-05-13T07:10:02.495Z,47.60
2019-05-13T07:12:32.283Z,48.50
2019-05-13T07:15:02.634Z,48.20
2019-05-13T07:17:32.448Z,47.40
2019-05-13T07:20:02.465Z,47.80
2019-05-13T07:22:32.347Z,48.20
2019-05-13T07:25:02.703Z,48.20
2019-05-13T07:27:32.256Z,49.20
2019-05-13T07:30:02.407Z,49.10
2019-05-13T07:32:31.950Z,49.00
2019-05-13T07:35:03.880Z,50.10
2019-05-13T07:37:32.955Z,48.00
2019-05-13T07:40:02.854Z,48.40
2019-05-13T07:42:32.429Z,47.70
2019-05-13T07:45:01.892Z,48.10
2019-05-13T07:47:31.588Z,47.50
2019-05-13T07:50:02.553Z,47.10
2019-05-13T07:52:32.238Z,47.00
2019-05-13T07:55:01.867Z,46.10
2019-05-13T07:57:31.982Z,45.10
2019-05-13T08:00:02.212Z,46.50
2019-05-13T08:02:32.135Z,45.60
2019-05-13T08:05:02.596Z,46.40
2019-05-13T08:07:32.122Z,46.70
2019-05-13T08:10:03.611Z,44.30
2019-05-13T08:12:32.833Z,44.50
2019-05-13T08:15:03.333Z,45.30
2019-05-13T08:17:32.969Z,43.80
2019-05-13T08:20:03.038Z,42.80
2019-05-13T08:22:32.675Z,44.40
2019-05-13T08:25:03.212Z,42.60
2019-05-13T08:27:35.163Z,42.90
2019-05-13T08:30:04.510Z,43.70
2019-05-13T08:32:33.970Z,42.20
2019-05-13T08:35:08.869Z,43.00
2019-05-13T08:37:34.741Z,40.60
2019-05-13T08:40:04.472Z,41.70
2019-05-13T08:42:33.941Z,39.30
2019-05-13T08:45:03.420Z,40.30
2019-05-13T08:47:32.891Z,41.90
2019-05-13T08:50:04.363Z,43.60
2019-05-13T08:52:33.620Z,41.40
2019-05-13T08:55:03.163Z,39.30
2019-05-13T08:57:33.111Z,40.20
2019-05-13T09:02:52.177Z,41.30
2019-05-13T09:05:28.074Z,39.20
2019-05-13T09:08:07.007Z,39.10
2019-05-13T09:10:41.382Z,37.90
2019-05-13T09:13:12.680Z,39.70
2019-05-13T09:15:46.520Z,36.70
2019-05-13T09:18:19.032Z,37.70
2019-05-13T09:20:52.216Z,36.80
2019-05-13T09:23:22.335Z,34.70
2019-05-13T09:25:52.410Z,35.60
2019-05-13T09:28:22.920Z,37.80
2019-05-13T09:30:53.311Z,39.50
2019-05-13T09:33:22.930Z,34.70
2019-05-13T09:35:53.494Z,35.10
2019-05-13T09:38:23.343Z,35.50
2019-05-13T09:40:53.300Z,36.70
2019-05-13T09:43:22.990Z,33.30
2019-05-13T09:45:52.706Z,35.00
2019-05-13T09:48:23.022Z,32.80
2019-05-13T09:50:53.243Z,32.60
2019-05-13T09:53:23.004Z,33.10
2019-05-13T09:55:52.639Z,31.00
2019-05-13T09:58:22.753Z,31.30
2019-05-13T10:00:53.071Z,33.50
2019-05-13T10:03:28.876Z,36.20
2019-05-13T10:05:54.646Z,31.30
2019-05-13T10:08:23.982Z,34.70
2019-05-13T10:10:53.386Z,37.20
2019-05-13T10:13:23.390Z,35.00
2019-05-13T10:15:53.085Z,36.90
2019-05-13T10:18:22.505Z,35.40
2019-05-13T10:20:58.312Z,33.90
2019-05-13T10:23:26.445Z,33.10
2019-05-13T10:25:59.138Z,31.70
2019-05-13T10:28:31.765Z,30.50
2019-05-13T10:31:00.898Z,32.50
2019-05-13T10:33:31.994Z,33.10
2019-05-13T10:36:03.512Z,33.40
2019-05-13T10:38:33.750Z,32.00
2019-05-13T10:41:03.871Z,33.00
2019-05-13T10:43:39.111Z,32.40
2019-05-13T10:46:07.527Z,32.40
2019-05-13T10:48:37.304Z,34.00
2019-05-13T10:51:08.005Z,37.50
2019-05-13T10:53:39.177Z,34.50
2019-05-13T10:56:11.328Z,34.70
2019-05-13T10:58:42.699Z,37.70
2019-05-13T11:01:16.827Z,33.80
2019-05-13T11:04:02.794Z,32.20
2019-05-13T11:06:32.678Z,35.10
2019-05-13T11:09:02.768Z,32.80
2019-05-13T11:11:33.221Z,34.10
2019-05-13T11:14:10.041Z,36.00
2019-05-13T11:16:34.422Z,35.60
2019-05-13T11:19:05.201Z,34.50
2019-05-13T11:21:34.678Z,30.10
2019-05-13T11:24:04.221Z,32.50
2019-05-13T11:26:36.263Z,33.30
2019-05-13T11:29:05.079Z,33.10
2019-05-13T11:31:34.723Z,33.30
2019-05-13T11:34:05.450Z,36.30
2019-05-13T11:36:34.951Z,37.20
2019-05-13T11:39:06.424Z,31.60
2019-05-13T11:41:35.843Z,34.50
2019-05-13T11:44:12.872Z,32.80
2019-05-13T11:46:36.295Z,32.90
2019-05-13T11:49:05.835Z,32.30
2019-05-13T11:51:35.238Z,30.70
2019-05-13T11:54:04.762Z,32.10
2019-05-13T11:56:34.495Z,27.70
2019-05-13T11:59:04.513Z,28.20
2019-05-13T12:01:34.155Z,30.00
2019-05-13T12:04:05.961Z,29.80
2019-05-13T12:06:35.411Z,27.50
2019-05-13T12:09:07.191Z,31.90
2019-05-13T12:11:37.225Z,31.20
2019-05-13T12:14:06.859Z,30.40
2019-05-13T12:16:36.537Z,31.40
2019-05-13T12:19:08.120Z,31.40
2019-05-13T12:21:42.113Z,29.70
2019-05-13T12:24:11.326Z,30.70
2019-05-13T12:26:43.386Z,31.60
2019-05-13T12:29:18.611Z,31.70
2019-05-13T12:31:45.215Z,31.10
2019-05-13T12:34:14.858Z,28.20
2019-05-13T12:36:44.250Z,28.40
2019-05-13T12:39:14.435Z,27.50
2019-05-13T12:41:44.197Z,29.50
2019-05-13T12:44:13.592Z,30.00
2019-05-13T12:46:49.959Z,32.00
2019-05-13T12:49:14.724Z,31.20
2019-05-13T12:51:44.273Z,33.20
2019-05-13T12:54:14.277Z,32.40
2019-05-13T12:56:44.428Z,31.40
2019-05-13T12:59:14.002Z,31.90
2019-05-13T13:01:43.383Z,32.30
2019-05-13T13:04:12.771Z,33.50
2019-05-13T13:06:45.390Z,32.90
2019-05-13T13:09:13.333Z,32.80
2019-05-13T13:11:43.978Z,33.30
2019-05-13T13:14:15.655Z,35.10
2019-05-13T13:16:45.323Z,33.50
2019-05-13T13:19:15.260Z,33.10
2019-05-13T13:21:44.731Z,34.30
2019-05-13T13:24:14.216Z,35.20
2019-05-13T13:26:43.770Z,33.30
2019-05-13T13:29:13.179Z,34.20
2019-05-13T13:31:43.622Z,32.00
2019-05-13T13:34:17.946Z,32.00
2019-05-13T13:36:45.973Z,32.20
2019-05-13T13:39:15.975Z,32.70
2019-05-13T13:41:45.635Z,32.40
2019-05-13T13:44:15.172Z,30.40
2019-05-13T13:46:49.479Z,32.00
2019-05-13T13:49:15.971Z,34.70
2019-05-13T13:51:46.012Z,31.70
2019-05-13T13:54:15.465Z,32.50
2019-05-13T13:56:45.047Z,31.50
2019-05-13T13:59:14.714Z,33.70
2019-05-13T14:01:47.874Z,33.50
2019-05-13T14:04:17.500Z,32.50
2019-05-13T14:07:02.817Z,40.10
2019-05-13T14:09:18.185Z,33.70
2019-05-13T14:11:47.627Z,31.50
2019-05-13T14:14:17.072Z,31.80
2019-05-13T14:16:46.898Z,30.50
2019-05-13T14:19:16.552Z,29.50
2019-05-13T14:21:45.970Z,31.00
2019-05-13T14:24:15.364Z,31.10
2019-05-13T14:26:47.545Z,31.40
2019-05-13T14:29:16.834Z,33.70
2019-05-13T14:31:46.795Z,32.50
2019-05-13T14:34:16.645Z,34.10
2019-05-13T14:36:46.272Z,31.80
2019-05-13T14:39:16.082Z,31.30
2019-05-13T14:41:45.668Z,29.60
2019-05-13T14:44:15.227Z,30.50
2019-05-13T14:46:47.892Z,30.90
2019-05-13T14:49:16.206Z,32.20
2019-05-13T14:51:45.706Z,30.60
2019-05-13T14:54:15.687Z,30.80
2019-05-13T14:56:45.271Z,30.10
2019-05-13T14:59:15.235Z,30.10
2019-05-13T15:01:44.618Z,31.10
2019-05-13T15:04:14.259Z,32.00
2019-05-13T15:06:43.872Z,30.60
2019-05-13T15:09:13.651Z,31.80
2019-05-13T15:11:43.420Z,32.10
2019-05-13T15:14:13.119Z,33.60
2019-05-13T15:16:42.683Z,32.80
2019-05-13T15:19:12.253Z,31.70
2019-05-13T15:21:41.776Z,30.80
2019-05-13T15:24:12.360Z,29.50
2019-05-13T15:26:42.421Z,31.10
2019-05-13T15:29:11.970Z,31.70
2019-05-13T15:31:42.163Z,32.90
2019-05-13T15:34:11.818Z,30.40
2019-05-13T15:36:42.047Z,32.10
2019-05-13T15:39:11.947Z,32.10
2019-05-13T15:41:41.949Z,32.90
2019-05-13T15:44:11.629Z,32.00
2019-05-13T15:46:41.914Z,29.90
2019-05-13T15:49:12.426Z,31.30
2019-05-13T15:51:42.458Z,29.90
2019-05-13T15:54:15.443Z,31.20
2019-05-13T15:56:43.296Z,30.60
2019-05-13T15:59:12.865Z,31.50
2019-05-13T16:01:42.857Z,32.90
2019-05-13T16:04:13.471Z,31.70
2019-05-13T16:06:43.590Z,29.90
2019-05-13T16:09:13.196Z,33.00
2019-05-13T16:11:42.818Z,30.50
2019-05-13T16:14:12.322Z,31.30
2019-05-13T16:16:42.080Z,30.00
2019-05-13T16:19:11.619Z,29.80
2019-05-13T16:21:41.769Z,31.50
2019-05-13T16:24:12.121Z,32.30
2019-05-13T16:26:42.944Z,32.70
2019-05-13T16:29:12.801Z,31.50
2019-05-13T16:31:42.401Z,30.50
2019-05-13T16:34:13.454Z,29.70
2019-05-13T16:36:43.471Z,29.40
2019-05-13T16:39:13.039Z,29.00
2019-05-13T16:41:42.853Z,29.10
2019-05-13T16:44:12.536Z,29.20
2019-05-13T16:46:42.721Z,29.60
2019-05-13T16:49:12.417Z,30.20
2019-05-13T16:51:42.720Z,29.60
2019-05-13T16:54:12.400Z,30.00
2019-05-13T16:56:42.227Z,32.00
2019-05-13T16:59:11.950Z,31.30
2019-05-13T17:01:41.963Z,32.50
2019-05-13T17:04:12.627Z,31.50
2019-05-13T17:06:42.253Z,30.70
2019-05-13T17:09:11.813Z,30.40
2019-05-13T17:11:41.620Z,29.00
2019-05-13T17:14:11.225Z,28.50
2019-05-13T17:16:41.390Z,28.80
2019-05-13T17:19:12.087Z,27.90
2019-05-13T17:21:41.810Z,28.10
2019-05-13T17:24:12.473Z,28.90
2019-05-13T17:26:42.155Z,28.40
2019-05-13T17:29:12.202Z,29.00
2019-05-13T17:31:41.888Z,28.10
2019-05-13T17:34:12.245Z,27.80
2019-05-13T17:36:42.164Z,28.20
2019-05-13T17:39:12.577Z,29.40
2019-05-13T17:41:42.748Z,29.90
2019-05-13T17:44:12.275Z,29.60
2019-05-13T17:46:42.063Z,29.60
2019-05-13T17:49:12.041Z,29.30
2019-05-13T17:51:42.612Z,29.20
2019-05-13T17:54:12.272Z,29.50
2019-05-13T17:56:41.844Z,28.60
2019-05-13T17:59:11.711Z,29.70
2019-05-13T18:01:41.654Z,30.50
2019-05-13T18:04:12.127Z,30.80
2019-05-13T18:06:45.226Z,32.50
2019-05-13T18:09:15.083Z,34.50
2019-05-13T18:11:45.386Z,34.20
2019-05-13T18:14:15.919Z,34.20
2019-05-13T18:16:45.808Z,36.00
2019-05-13T18:19:15.279Z,36.30
2019-05-13T18:21:44.866Z,37.60
2019-05-13T18:24:14.433Z,38.00
2019-05-13T18:26:44.083Z,40.10
2019-05-13T18:29:13.900Z,37.90
2019-05-13T18:31:43.487Z,38.30
2019-05-13T18:34:13.035Z,40.70
2019-05-13T18:36:42.821Z,39.50
2019-05-13T18:39:12.614Z,39.80
2019-05-13T18:41:42.626Z,38.90
2019-05-13T18:44:12.489Z,40.50
2019-05-13T18:46:42.085Z,40.70
2019-05-13T18:49:12.098Z,39.40
2019-05-13T18:51:42.409Z,39.50
2019-05-13T18:54:12.224Z,40.70
2019-05-13T18:56:41.921Z,40.20
2019-05-13T18:59:12.556Z,40.20
2019-05-13T19:01:42.663Z,40.00
2019-05-13T19:04:12.282Z,40.50
2019-05-13T19:06:42.501Z,41.00
2019-05-13T19:09:12.074Z,41.50
2019-05-13T19:11:42.766Z,42.40
2019-05-13T19:14:12.582Z,42.40
2019-05-13T19:16:42.433Z,42.80
2019-05-13T19:19:15.708Z,43.40
2019-05-13T19:21:43.222Z,43.30
2019-05-13T19:24:13.380Z,43.70
2019-05-13T19:26:43.063Z,43.30
2019-05-13T19:29:12.645Z,43.70
2019-05-13T19:31:42.180Z,44.10
2019-05-13T19:34:12.718Z,44.70
2019-05-13T19:36:42.325Z,42.80
2019-05-13T19:39:11.775Z,43.70
2019-05-13T19:41:42.305Z,44.50
2019-05-13T19:44:11.969Z,42.90
2019-05-13T19:46:42.124Z,44.50
2019-05-13T19:49:27.234Z,43.20
2019-05-13T19:51:43.538Z,44.70
2019-05-13T19:54:12.983Z,44.60
2019-05-13T19:56:42.506Z,45.70
2019-05-13T19:59:12.592Z,44.10
2019-05-13T20:01:42.449Z,45.90
2019-05-13T20:04:11.963Z,47.00
2019-05-13T20:06:41.659Z,47.60
2019-05-13T20:09:11.160Z,47.10
2019-05-13T20:11:41.966Z,48.00
2019-05-13T20:14:12.409Z,48.40
2019-05-13T20:16:41.998Z,48.10
2019-05-13T20:19:11.887Z,48.10
2019-05-13T20:21:42.618Z,47.80
2019-05-13T20:24:12.332Z,47.30
2019-05-13T20:26:41.907Z,48.20
2019-05-13T20:29:12.368Z,49.00
2019-05-13T20:31:41.980Z,46.80
2019-05-13T20:34:11.993Z,48.00
2019-05-13T20:36:42.270Z,48.10
2019-05-13T20:39:11.899Z,48.00
2019-05-13T20:41:41.572Z,47.30
2019-05-13T20:44:11.144Z,47.00
2019-05-13T20:46:42.203Z,46.80
2019-05-13T20:49:12.202Z,46.70
2019-05-13T20:51:41.840Z,46.30
2019-05-13T20:54:11.532Z,46.60
2019-05-13T20:56:42.238Z,47.20
2019-05-13T20:59:11.961Z,47.40
2019-05-13T21:01:41.899Z,46.70
2019-05-13T21:04:12.380Z,45.70
2019-05-13T21:09:25.103Z,44.60
2019-05-13T21:11:54.643Z,45.80
2019-05-13T21:14:24.134Z,45.10
2019-05-13T21:16:53.960Z,45.20
2019-05-13T21:19:23.515Z,44.20
2019-05-13T21:21:53.222Z,45.60
2019-05-13T21:24:22.723Z,45.90
2019-05-13T21:26:52.178Z,45.30
2019-05-13T21:29:21.729Z,44.90
2019-05-13T21:31:52.950Z,45.30
2019-05-13T21:34:22.560Z,45.50
2019-05-13T21:36:52.022Z,45.30
2019-05-13T21:39:21.880Z,44.60
2019-05-13T21:41:52.290Z,44.50
2019-05-13T21:44:21.884Z,45.20
2019-05-13T21:46:52.452Z,44.70
2019-05-13T21:49:22.736Z,45.30
2019-05-13T21:51:53.317Z,45.20
2019-05-13T21:54:23.367Z,45.10
2019-05-13T21:56:52.972Z,45.80
2019-05-13T21:59:23.304Z,45.40
2019-05-13T22:01:52.916Z,45.00
2019-05-13T22:04:22.375Z,45.10
2019-05-13T22:06:52.341Z,45.50
2019-05-13T22:09:22.131Z,45.50
2019-05-13T22:11:51.644Z,45.80
2019-05-13T22:14:21.151Z,44.60
2019-05-13T22:16:51.787Z,45.70
2019-05-13T22:19:22.322Z,45.10
2019-05-13T22:21:51.858Z,45.30
2019-05-13T22:24:22.117Z,45.50
2019-05-13T22:26:51.676Z,45.30
2019-05-13T22:29:23.156Z,45.40
2019-05-13T22:31:52.446Z,44.90
2019-05-13T22:34:21.923Z,46.00
2019-05-13T22:36:51.794Z,44.80
2019-05-13T22:39:22.036Z,45.00
2019-05-13T22:41:52.409Z,46.00
2019-05-13T22:44:21.978Z,45.70
2019-05-13T22:46:56.005Z,45.00
2019-05-13T22:49:25.506Z,45.10
2019-05-13T22:51:55.052Z,46.30
2019-05-13T22:54:24.608Z,46.10
2019-05-13T22:56:54.126Z,45.70
2019-05-13T22:59:23.593Z,46.20
2019-05-13T23:01:53.076Z,46.20
2019-05-13T23:04:22.521Z,45.10
2019-05-13T23:06:52.131Z,46.20
2019-05-13T23:09:21.956Z,46.70
2019-05-13T23:11:51.482Z,46.10
2019-05-13T23:14:22.027Z,45.80
2019-05-13T23:16:51.931Z,46.60
2019-05-13T23:19:21.802Z,46.20
2019-05-13T23:21:51.315Z,46.40
2019-05-13T23:24:21.845Z,46.40
2019-05-13T23:26:51.931Z,47.50
2019-05-13T23:29:21.534Z,46.90
2019-05-13T23:31:52.027Z,46.50
2019-05-13T23:34:22.372Z,47.00
2019-05-13T23:36:51.940Z,47.00
2019-05-13T23:39:21.744Z,46.40
2019-05-13T23:41:52.213Z,47.30
2019-05-13T23:44:27.676Z,47.70
2019-05-13T23:46:53.710Z,47.50
2019-05-13T23:49:23.414Z,48.20
2019-05-13T23:51:53.170Z,48.20
2019-05-13T23:54:23.227Z,47.90
2019-05-13T23:56:52.721Z,47.70
2019-05-13T23:59:22.219Z,47.70
